sensor_id;sensor_type;location;lat;lon;timestamp;P1;durP1;ratioP1;P2;durP2;ratioP2
41631;SDS011;37452;51.938;4.624;2023-09-12T00:02:04;30.83;;;19.65;;
41631;SDS011;37452;51.938;4.624;2023-09-12T00:04:29;32.65;;;19.73;;
41631;SDS011;37452;51.938;4.624;2023-09-12T00:06:55;25.77;;;16.50;;
41631;SDS011;37452;51.938;4.624;2023-09-12T00:09:20;26.60;;;15.75;;
41631;SDS011;37452;51.938;4.624;2023-09-12T00:11:46;17.48;;;12.05;;
41631;SDS011;37452;51.938;4.624;2023-09-12T00:14:14;25.45;;;15.88;;
41631;SDS011;37452;51.938;4.624;2023-09-12T00:16:41;26.10;;;17.17;;
41631;SDS011;37452;51.938;4.624;2023-09-12T00:19:06;28.25;;;16.27;;
41631;SDS011;37452;51.938;4.624;2023-09-12T00:21:32;28.92;;;16.98;;
41631;SDS011;37452;51.938;4.624;2023-09-12T00:23:57;27.30;;;16.25;;
41631;SDS011;37452;51.938;4.624;2023-09-12T00:26:22;21.23;;;13.45;;
41631;SDS011;37452;51.938;4.624;2023-09-12T00:28:48;31.08;;;17.50;;
41631;SDS011;37452;51.938;4.624;2023-09-12T00:31:13;26.65;;;17.05;;
41631;SDS011;37452;51.938;4.624;2023-09-12T00:33:38;33.58;;;20.50;;
41631;SDS011;37452;51.938;4.624;2023-09-12T00:36:04;33.03;;;19.60;;
41631;SDS011;37452;51.938;4.624;2023-09-12T00:38:29;33.45;;;21.30;;
41631;SDS011;37452;51.938;4.624;2023-09-12T00:40:55;35.45;;;20.83;;
41631;SDS011;37452;51.938;4.624;2023-09-12T00:43:20;27.13;;;17.13;;
41631;SDS011;37452;51.938;4.624;2023-09-12T00:45:45;26.70;;;15.88;;
41631;SDS011;37452;51.938;4.624;2023-09-12T00:48:11;23.38;;;14.90;;
41631;SDS011;37452;51.938;4.624;2023-09-12T00:50:38;22.80;;;14.52;;
41631;SDS011;37452;51.938;4.624;2023-09-12T00:53:04;24.23;;;14.60;;
41631;SDS011;37452;51.938;4.624;2023-09-12T00:55:31;25.88;;;14.65;;
41631;SDS011;37452;51.938;4.624;2023-09-12T00:57:58;24.58;;;15.25;;
41631;SDS011;37452;51.938;4.624;2023-09-12T01:00:24;22.10;;;14.07;;
41631;SDS011;37452;51.938;4.624;2023-09-12T01:02:50;27.90;;;15.80;;
41631;SDS011;37452;51.938;4.624;2023-09-12T01:05:17;32.17;;;18.75;;
41631;SDS011;37452;51.938;4.624;2023-09-12T01:07:43;35.60;;;19.08;;
41631;SDS011;37452;51.938;4.624;2023-09-12T01:10:09;34.25;;;19.38;;
41631;SDS011;37452;51.938;4.624;2023-09-12T01:12:35;36.67;;;20.15;;
41631;SDS011;37452;51.938;4.624;2023-09-12T01:15:01;34.50;;;19.95;;
41631;SDS011;37452;51.938;4.624;2023-09-12T01:17:27;32.10;;;19.45;;
41631;SDS011;37452;51.938;4.624;2023-09-12T01:19:53;33.28;;;19.88;;
41631;SDS011;37452;51.938;4.624;2023-09-12T01:28:08;33.45;;;19.30;;
41631;SDS011;37452;51.938;4.624;2023-09-12T01:30:35;34.60;;;19.95;;
41631;SDS011;37452;51.938;4.624;2023-09-12T01:33:01;30.85;;;18.27;;
41631;SDS011;37452;51.938;4.624;2023-09-12T01:35:27;31.27;;;18.40;;
41631;SDS011;37452;51.938;4.624;2023-09-12T01:37:52;29.25;;;18.98;;
41631;SDS011;37452;51.938;4.624;2023-09-12T01:40:19;31.60;;;17.63;;
41631;SDS011;37452;51.938;4.624;2023-09-12T01:42:52;33.50;;;17.88;;
41631;SDS011;37452;51.938;4.624;2023-09-12T01:45:19;32.13;;;17.77;;
41631;SDS011;37452;51.938;4.624;2023-09-12T01:47:45;31.58;;;18.17;;
41631;SDS011;37452;51.938;4.624;2023-09-12T01:50:12;36.25;;;18.95;;
41631;SDS011;37452;51.938;4.624;2023-09-12T01:52:39;33.42;;;18.48;;
41631;SDS011;37452;51.938;4.624;2023-09-12T01:55:06;33.22;;;18.73;;
41631;SDS011;37452;51.938;4.624;2023-09-12T01:57:34;34.10;;;19.48;;
41631;SDS011;37452;51.938;4.624;2023-09-12T02:00:00;31.77;;;18.17;;
41631;SDS011;37452;51.938;4.624;2023-09-12T02:02:26;34.47;;;19.15;;
41631;SDS011;37452;51.938;4.624;2023-09-12T02:07:35;33.65;;;18.63;;
41631;SDS011;37452;51.938;4.624;2023-09-12T02:10:03;34.95;;;20.25;;
41631;SDS011;37452;51.938;4.624;2023-09-12T02:12:32;34.20;;;19.90;;
41631;SDS011;37452;51.938;4.624;2023-09-12T02:14:57;34.67;;;19.88;;
41631;SDS011;37452;51.938;4.624;2023-09-12T02:17:23;34.95;;;20.45;;
41631;SDS011;37452;51.938;4.624;2023-09-12T02:19:48;35.17;;;18.80;;
41631;SDS011;37452;51.938;4.624;2023-09-12T02:22:14;33.75;;;18.48;;
41631;SDS011;37452;51.938;4.624;2023-09-12T02:24:39;29.27;;;17.60;;
41631;SDS011;37452;51.938;4.624;2023-09-12T02:27:04;35.70;;;17.55;;
41631;SDS011;37452;51.938;4.624;2023-09-12T02:29:30;31.42;;;17.27;;
41631;SDS011;37452;51.938;4.624;2023-09-12T02:31:57;32.45;;;17.40;;
41631;SDS011;37452;51.938;4.624;2023-09-12T02:34:22;29.60;;;16.40;;
41631;SDS011;37452;51.938;4.624;2023-09-12T02:36:48;32.55;;;17.05;;
41631;SDS011;37452;51.938;4.624;2023-09-12T02:39:13;29.13;;;16.80;;
41631;SDS011;37452;51.938;4.624;2023-09-12T02:41:39;32.20;;;17.58;;
41631;SDS011;37452;51.938;4.624;2023-09-12T02:44:04;26.85;;;16.10;;
41631;SDS011;37452;51.938;4.624;2023-09-12T02:46:30;24.10;;;14.85;;
41631;SDS011;37452;51.938;4.624;2023-09-12T02:48:55;26.00;;;15.93;;
41631;SDS011;37452;51.938;4.624;2023-09-12T02:51:20;23.17;;;14.27;;
41631;SDS011;37452;51.938;4.624;2023-09-12T02:53:46;24.83;;;14.82;;
41631;SDS011;37452;51.938;4.624;2023-09-12T02:56:11;23.20;;;14.55;;
41631;SDS011;37452;51.938;4.624;2023-09-12T02:58:37;23.13;;;13.68;;
41631;SDS011;37452;51.938;4.624;2023-09-12T03:01:02;26.27;;;14.20;;
41631;SDS011;37452;51.938;4.624;2023-09-12T03:03:30;27.73;;;15.55;;
41631;SDS011;37452;51.938;4.624;2023-09-12T03:06:01;29.02;;;14.93;;
41631;SDS011;37452;51.938;4.624;2023-09-12T03:08:30;32.55;;;15.52;;
41631;SDS011;37452;51.938;4.624;2023-09-12T03:10:55;29.27;;;17.48;;
41631;SDS011;37452;51.938;4.624;2023-09-12T03:13:23;32.28;;;17.52;;
41631;SDS011;37452;51.938;4.624;2023-09-12T03:15:51;36.45;;;18.70;;
41631;SDS011;37452;51.938;4.624;2023-09-12T03:18:16;29.90;;;16.25;;
41631;SDS011;37452;51.938;4.624;2023-09-12T03:20:42;31.95;;;17.25;;
41631;SDS011;37452;51.938;4.624;2023-09-12T03:23:07;31.13;;;16.50;;
41631;SDS011;37452;51.938;4.624;2023-09-12T03:25:36;30.52;;;16.85;;
41631;SDS011;37452;51.938;4.624;2023-09-12T03:28:03;33.95;;;17.27;;
41631;SDS011;37452;51.938;4.624;2023-09-12T03:30:29;29.20;;;16.38;;
41631;SDS011;37452;51.938;4.624;2023-09-12T03:32:54;31.95;;;16.95;;
41631;SDS011;37452;51.938;4.624;2023-09-12T03:35:20;30.52;;;18.60;;
41631;SDS011;37452;51.938;4.624;2023-09-12T03:37:45;35.67;;;18.27;;
41631;SDS011;37452;51.938;4.624;2023-09-12T03:40:11;36.47;;;17.02;;
41631;SDS011;37452;51.938;4.624;2023-09-12T03:42:36;27.42;;;16.75;;
41631;SDS011;37452;51.938;4.624;2023-09-12T03:45:02;30.35;;;16.85;;
41631;SDS011;37452;51.938;4.624;2023-09-12T03:47:28;28.98;;;15.27;;
41631;SDS011;37452;51.938;4.624;2023-09-12T03:49:53;29.15;;;15.82;;
41631;SDS011;37452;51.938;4.624;2023-09-12T03:52:19;30.35;;;16.92;;
41631;SDS011;37452;51.938;4.624;2023-09-12T03:54:44;34.83;;;19.10;;
41631;SDS011;37452;51.938;4.624;2023-09-12T03:57:09;31.58;;;17.90;;
41631;SDS011;37452;51.938;4.624;2023-09-12T03:59:35;33.88;;;17.65;;
41631;SDS011;37452;51.938;4.624;2023-09-12T04:02:01;33.95;;;18.20;;
41631;SDS011;37452;51.938;4.624;2023-09-12T04:04:27;28.50;;;16.65;;
41631;SDS011;37452;51.938;4.624;2023-09-12T04:06:53;35.70;;;17.55;;
41631;SDS011;37452;51.938;4.624;2023-09-12T04:09:19;32.55;;;16.00;;
41631;SDS011;37452;51.938;4.624;2023-09-12T04:11:45;31.35;;;18.08;;
41631;SDS011;37452;51.938;4.624;2023-09-12T04:14:10;34.83;;;17.38;;
41631;SDS011;37452;51.938;4.624;2023-09-12T04:16:35;32.30;;;17.02;;
41631;SDS011;37452;51.938;4.624;2023-09-12T04:19:01;31.23;;;17.42;;
41631;SDS011;37452;51.938;4.624;2023-09-12T04:21:26;33.28;;;18.23;;
41631;SDS011;37452;51.938;4.624;2023-09-12T04:23:52;36.60;;;17.73;;
41631;SDS011;37452;51.938;4.624;2023-09-12T04:26:17;38.35;;;17.67;;
41631;SDS011;37452;51.938;4.624;2023-09-12T04:28:42;43.63;;;19.17;;
41631;SDS011;37452;51.938;4.624;2023-09-12T04:31:08;35.63;;;17.77;;
41631;SDS011;37452;51.938;4.624;2023-09-12T04:33:34;34.05;;;18.15;;
41631;SDS011;37452;51.938;4.624;2023-09-12T04:36:00;34.60;;;17.33;;
41631;SDS011;37452;51.938;4.624;2023-09-12T04:38:26;36.80;;;17.65;;
41631;SDS011;37452;51.938;4.624;2023-09-12T04:40:59;33.10;;;17.13;;
41631;SDS011;37452;51.938;4.624;2023-09-12T04:43:29;38.47;;;19.55;;
41631;SDS011;37452;51.938;4.624;2023-09-12T04:45:55;33.33;;;17.27;;
41631;SDS011;37452;51.938;4.624;2023-09-12T04:48:20;38.08;;;17.40;;
41631;SDS011;37452;51.938;4.624;2023-09-12T04:50:46;31.75;;;17.50;;
41631;SDS011;37452;51.938;4.624;2023-09-12T04:53:11;35.67;;;17.33;;
41631;SDS011;37452;51.938;4.624;2023-09-12T04:55:37;39.75;;;19.33;;
41631;SDS011;37452;51.938;4.624;2023-09-12T04:58:03;41.17;;;19.10;;
41631;SDS011;37452;51.938;4.624;2023-09-12T05:00:29;35.85;;;19.90;;
41631;SDS011;37452;51.938;4.624;2023-09-12T05:02:55;34.65;;;18.73;;
41631;SDS011;37452;51.938;4.624;2023-09-12T05:05:20;39.22;;;18.63;;
41631;SDS011;37452;51.938;4.624;2023-09-12T05:07:46;42.65;;;20.95;;
41631;SDS011;37452;51.938;4.624;2023-09-12T05:10:11;45.20;;;20.70;;
41631;SDS011;37452;51.938;4.624;2023-09-12T05:12:36;41.50;;;20.23;;
41631;SDS011;37452;51.938;4.624;2023-09-12T05:15:02;43.90;;;21.17;;
41631;SDS011;37452;51.938;4.624;2023-09-12T05:17:27;43.55;;;20.60;;
41631;SDS011;37452;51.938;4.624;2023-09-12T05:19:53;40.33;;;20.38;;
41631;SDS011;37452;51.938;4.624;2023-09-12T05:22:18;42.72;;;21.05;;
41631;SDS011;37452;51.938;4.624;2023-09-12T05:24:45;42.83;;;21.67;;
41631;SDS011;37452;51.938;4.624;2023-09-12T05:27:11;45.78;;;22.98;;
41631;SDS011;37452;51.938;4.624;2023-09-12T05:29:36;63.42;;;24.98;;
41631;SDS011;37452;51.938;4.624;2023-09-12T05:32:02;66.30;;;29.42;;
41631;SDS011;37452;51.938;4.624;2023-09-12T05:34:28;73.28;;;31.50;;
41631;SDS011;37452;51.938;4.624;2023-09-12T05:36:53;74.63;;;30.95;;
41631;SDS011;37452;51.938;4.624;2023-09-12T05:39:19;70.10;;;31.55;;
41631;SDS011;37452;51.938;4.624;2023-09-12T05:41:44;69.03;;;29.45;;
41631;SDS011;37452;51.938;4.624;2023-09-12T05:44:09;68.28;;;30.15;;
41631;SDS011;37452;51.938;4.624;2023-09-12T05:46:37;71.78;;;31.10;;
41631;SDS011;37452;51.938;4.624;2023-09-12T05:49:03;69.93;;;30.92;;
41631;SDS011;37452;51.938;4.624;2023-09-12T05:51:29;76.13;;;30.88;;
41631;SDS011;37452;51.938;4.624;2023-09-12T05:53:54;75.75;;;29.88;;
41631;SDS011;37452;51.938;4.624;2023-09-12T05:56:20;66.28;;;30.10;;
41631;SDS011;37452;51.938;4.624;2023-09-12T05:58:45;67.13;;;29.90;;
41631;SDS011;37452;51.938;4.624;2023-09-12T06:01:11;73.03;;;31.25;;
41631;SDS011;37452;51.938;4.624;2023-09-12T06:03:36;68.13;;;29.90;;
41631;SDS011;37452;51.938;4.624;2023-09-12T06:06:02;74.70;;;31.10;;
41631;SDS011;37452;51.938;4.624;2023-09-12T06:08:28;72.97;;;32.58;;
41631;SDS011;37452;51.938;4.624;2023-09-12T06:10:53;77.80;;;33.33;;
41631;SDS011;37452;51.938;4.624;2023-09-12T06:13:19;77.03;;;31.95;;
41631;SDS011;37452;51.938;4.624;2023-09-12T06:15:45;72.57;;;32.50;;
41631;SDS011;37452;51.938;4.624;2023-09-12T06:18:10;74.25;;;31.95;;
41631;SDS011;37452;51.938;4.624;2023-09-12T06:20:36;69.57;;;31.00;;
41631;SDS011;37452;51.938;4.624;2023-09-12T06:23:01;66.10;;;29.15;;
41631;SDS011;37452;51.938;4.624;2023-09-12T06:25:28;80.13;;;33.55;;
41631;SDS011;37452;51.938;4.624;2023-09-12T06:27:54;72.50;;;31.63;;
41631;SDS011;37452;51.938;4.624;2023-09-12T06:30:19;72.60;;;31.13;;
41631;SDS011;37452;51.938;4.624;2023-09-12T06:32:45;77.65;;;33.00;;
41631;SDS011;37452;51.938;4.624;2023-09-12T06:35:10;67.22;;;30.20;;
41631;SDS011;37452;51.938;4.624;2023-09-12T06:37:37;65.13;;;30.58;;
41631;SDS011;37452;51.938;4.624;2023-09-12T06:40:03;74.20;;;31.90;;
41631;SDS011;37452;51.938;4.624;2023-09-12T06:42:28;70.32;;;30.63;;
41631;SDS011;37452;51.938;4.624;2023-09-12T06:44:54;63.13;;;28.80;;
41631;SDS011;37452;51.938;4.624;2023-09-12T06:47:19;75.65;;;31.52;;
41631;SDS011;37452;51.938;4.624;2023-09-12T06:49:44;67.55;;;30.67;;
41631;SDS011;37452;51.938;4.624;2023-09-12T06:52:10;72.78;;;32.83;;
41631;SDS011;37452;51.938;4.624;2023-09-12T06:54:35;71.53;;;33.38;;
41631;SDS011;37452;51.938;4.624;2023-09-12T06:57:01;69.38;;;31.38;;
41631;SDS011;37452;51.938;4.624;2023-09-12T06:59:26;69.35;;;32.25;;
41631;SDS011;37452;51.938;4.624;2023-09-12T07:01:51;66.47;;;31.88;;
41631;SDS011;37452;51.938;4.624;2023-09-12T07:04:17;73.95;;;33.58;;
41631;SDS011;37452;51.938;4.624;2023-09-12T07:06:42;73.43;;;34.72;;
41631;SDS011;37452;51.938;4.624;2023-09-12T07:09:08;70.00;;;33.33;;
41631;SDS011;37452;51.938;4.624;2023-09-12T07:11:34;65.82;;;31.58;;
41631;SDS011;37452;51.938;4.624;2023-09-12T07:13:59;68.10;;;32.85;;
41631;SDS011;37452;51.938;4.624;2023-09-12T07:16:25;70.88;;;32.72;;
41631;SDS011;37452;51.938;4.624;2023-09-12T07:18:50;72.95;;;33.30;;
41631;SDS011;37452;51.938;4.624;2023-09-12T07:21:16;69.00;;;33.58;;
41631;SDS011;37452;51.938;4.624;2023-09-12T07:23:42;68.97;;;33.40;;
41631;SDS011;37452;51.938;4.624;2023-09-12T07:26:11;70.90;;;33.10;;
41631;SDS011;37452;51.938;4.624;2023-09-12T07:28:38;68.05;;;32.33;;
41631;SDS011;37452;51.938;4.624;2023-09-12T07:31:04;62.70;;;32.08;;
41631;SDS011;37452;51.938;4.624;2023-09-12T07:33:29;62.40;;;30.08;;
41631;SDS011;37452;51.938;4.624;2023-09-12T07:35:54;67.78;;;32.58;;
41631;SDS011;37452;51.938;4.624;2023-09-12T07:38:20;62.60;;;33.05;;
41631;SDS011;37452;51.938;4.624;2023-09-12T07:40:46;56.83;;;30.65;;
41631;SDS011;37452;51.938;4.624;2023-09-12T07:43:11;64.20;;;31.92;;
41631;SDS011;37452;51.938;4.624;2023-09-12T07:45:37;60.83;;;31.77;;
41631;SDS011;37452;51.938;4.624;2023-09-12T07:48:06;62.83;;;33.50;;
41631;SDS011;37452;51.938;4.624;2023-09-12T07:50:33;61.00;;;32.80;;
41631;SDS011;37452;51.938;4.624;2023-09-12T07:52:58;58.70;;;32.58;;
41631;SDS011;37452;51.938;4.624;2023-09-12T07:55:24;55.42;;;31.65;;
41631;SDS011;37452;51.938;4.624;2023-09-12T07:57:49;59.40;;;32.10;;
41631;SDS011;37452;51.938;4.624;2023-09-12T08:00:14;58.55;;;31.80;;
41631;SDS011;37452;51.938;4.624;2023-09-12T08:02:41;59.60;;;31.38;;
41631;SDS011;37452;51.938;4.624;2023-09-12T08:05:06;58.17;;;30.08;;
41631;SDS011;37452;51.938;4.624;2023-09-12T08:07:33;53.78;;;30.98;;
41631;SDS011;37452;51.938;4.624;2023-09-12T08:09:59;56.95;;;31.17;;
41631;SDS011;37452;51.938;4.624;2023-09-12T08:12:25;54.05;;;29.90;;
41631;SDS011;37452;51.938;4.624;2023-09-12T08:14:51;57.53;;;30.05;;
41631;SDS011;37452;51.938;4.624;2023-09-12T08:17:17;59.50;;;31.65;;
41631;SDS011;37452;51.938;4.624;2023-09-12T08:19:43;55.92;;;30.40;;
41631;SDS011;37452;51.938;4.624;2023-09-12T08:22:09;52.15;;;29.95;;
41631;SDS011;37452;51.938;4.624;2023-09-12T08:24:36;52.38;;;29.83;;
41631;SDS011;37452;51.938;4.624;2023-09-12T08:27:02;52.72;;;29.08;;
41631;SDS011;37452;51.938;4.624;2023-09-12T08:29:28;50.92;;;30.45;;
41631;SDS011;37452;51.938;4.624;2023-09-12T08:31:54;56.00;;;30.80;;
41631;SDS011;37452;51.938;4.624;2023-09-12T08:34:20;54.58;;;29.38;;
41631;SDS011;37452;51.938;4.624;2023-09-12T08:36:45;55.20;;;30.48;;
41631;SDS011;37452;51.938;4.624;2023-09-12T08:39:14;52.63;;;29.58;;
41631;SDS011;37452;51.938;4.624;2023-09-12T08:41:41;47.28;;;29.20;;
41631;SDS011;37452;51.938;4.624;2023-09-12T08:44:07;50.15;;;29.15;;
41631;SDS011;37452;51.938;4.624;2023-09-12T08:46:34;48.03;;;27.65;;
41631;SDS011;37452;51.938;4.624;2023-09-12T08:48:59;48.53;;;28.45;;
41631;SDS011;37452;51.938;4.624;2023-09-12T08:51:25;50.08;;;28.58;;
41631;SDS011;37452;51.938;4.624;2023-09-12T08:53:51;49.60;;;29.33;;
41631;SDS011;37452;51.938;4.624;2023-09-12T08:56:20;50.50;;;27.88;;
41631;SDS011;37452;51.938;4.624;2023-09-12T08:58:45;47.08;;;28.02;;
41631;SDS011;37452;51.938;4.624;2023-09-12T09:01:12;41.17;;;26.73;;
41631;SDS011;37452;51.938;4.624;2023-09-12T09:03:42;49.38;;;28.73;;
41631;SDS011;37452;51.938;4.624;2023-09-12T09:06:08;44.88;;;27.90;;
41631;SDS011;37452;51.938;4.624;2023-09-12T09:08:35;45.00;;;28.10;;
41631;SDS011;37452;51.938;4.624;2023-09-12T09:11:02;45.05;;;27.48;;
41631;SDS011;37452;51.938;4.624;2023-09-12T09:13:28;44.08;;;26.90;;
41631;SDS011;37452;51.938;4.624;2023-09-12T09:18:55;46.80;;;28.17;;
41631;SDS011;37452;51.938;4.624;2023-09-12T09:21:30;40.83;;;28.05;;
41631;SDS011;37452;51.938;4.624;2023-09-12T09:24:04;42.85;;;26.15;;
41631;SDS011;37452;51.938;4.624;2023-09-12T09:29:15;43.50;;;26.35;;
41631;SDS011;37452;51.938;4.624;2023-09-12T09:31:42;40.53;;;25.45;;
41631;SDS011;37452;51.938;4.624;2023-09-12T09:36:41;41.67;;;24.83;;
41631;SDS011;37452;51.938;4.624;2023-09-12T09:39:08;32.78;;;22.13;;
41631;SDS011;37452;51.938;4.624;2023-09-12T09:41:34;37.08;;;23.90;;
41631;SDS011;37452;51.938;4.624;2023-09-12T09:43:59;33.33;;;21.88;;
41631;SDS011;37452;51.938;4.624;2023-09-12T09:46:25;33.25;;;21.58;;
41631;SDS011;37452;51.938;4.624;2023-09-12T09:48:51;33.42;;;20.85;;
41631;SDS011;37452;51.938;4.624;2023-09-12T09:51:16;36.63;;;22.00;;
41631;SDS011;37452;51.938;4.624;2023-09-12T09:53:42;34.60;;;20.90;;
41631;SDS011;37452;51.938;4.624;2023-09-12T09:58:35;32.03;;;19.55;;
41631;SDS011;37452;51.938;4.624;2023-09-12T10:01:01;34.78;;;22.60;;
41631;SDS011;37452;51.938;4.624;2023-09-12T10:03:26;32.28;;;20.33;;
41631;SDS011;37452;51.938;4.624;2023-09-12T10:05:53;38.67;;;20.65;;
41631;SDS011;37452;51.938;4.624;2023-09-12T10:08:22;33.63;;;20.05;;
41631;SDS011;37452;51.938;4.624;2023-09-12T10:10:49;32.03;;;19.58;;
41631;SDS011;37452;51.938;4.624;2023-09-12T10:13:16;30.38;;;19.15;;
41631;SDS011;37452;51.938;4.624;2023-09-12T10:15:44;32.95;;;18.88;;
41631;SDS011;37452;51.938;4.624;2023-09-12T10:18:11;28.65;;;18.85;;
41631;SDS011;37452;51.938;4.624;2023-09-12T10:20:54;30.20;;;17.98;;
41631;SDS011;37452;51.938;4.624;2023-09-12T10:26:08;29.65;;;16.73;;
41631;SDS011;37452;51.938;4.624;2023-09-12T10:28:36;28.25;;;17.58;;
41631;SDS011;37452;51.938;4.624;2023-09-12T10:31:04;27.10;;;18.08;;
41631;SDS011;37452;51.938;4.624;2023-09-12T10:33:31;30.70;;;20.02;;
41631;SDS011;37452;51.938;4.624;2023-09-12T10:35:57;30.50;;;18.65;;
41631;SDS011;37452;51.938;4.624;2023-09-12T10:38:23;26.95;;;16.95;;
41631;SDS011;37452;51.938;4.624;2023-09-12T10:40:51;25.92;;;17.60;;
41631;SDS011;37452;51.938;4.624;2023-09-12T10:43:19;29.55;;;19.27;;
41631;SDS011;37452;51.938;4.624;2023-09-12T10:45:46;30.52;;;19.05;;
41631;SDS011;37452;51.938;4.624;2023-09-12T10:48:14;30.02;;;18.73;;
41631;SDS011;37452;51.938;4.624;2023-09-12T10:50:39;30.42;;;18.73;;
41631;SDS011;37452;51.938;4.624;2023-09-12T10:53:12;29.73;;;17.90;;
41631;SDS011;37452;51.938;4.624;2023-09-12T10:55:39;30.55;;;18.50;;
41631;SDS011;37452;51.938;4.624;2023-09-12T10:58:05;25.65;;;17.75;;
41631;SDS011;37452;51.938;4.624;2023-09-12T11:00:32;29.23;;;17.17;;
41631;SDS011;37452;51.938;4.624;2023-09-12T11:02:58;27.63;;;17.77;;
41631;SDS011;37452;51.938;4.624;2023-09-12T11:07:58;27.33;;;17.48;;
41631;SDS011;37452;51.938;4.624;2023-09-12T11:10:26;29.88;;;18.63;;
41631;SDS011;37452;51.938;4.624;2023-09-12T11:12:55;26.65;;;17.17;;
41631;SDS011;37452;51.938;4.624;2023-09-12T11:15:25;28.77;;;18.05;;
41631;SDS011;37452;51.938;4.624;2023-09-12T11:20:48;25.95;;;16.42;;
41631;SDS011;37452;51.938;4.624;2023-09-12T11:23:18;29.67;;;16.25;;
41631;SDS011;37452;51.938;4.624;2023-09-12T11:25:44;25.98;;;15.82;;
41631;SDS011;37452;51.938;4.624;2023-09-12T11:28:09;26.77;;;16.08;;
41631;SDS011;37452;51.938;4.624;2023-09-12T11:30:35;26.73;;;16.45;;
41631;SDS011;37452;51.938;4.624;2023-09-12T11:33:03;25.52;;;16.10;;
41631;SDS011;37452;51.938;4.624;2023-09-12T11:35:30;28.25;;;16.58;;
41631;SDS011;37452;51.938;4.624;2023-09-12T11:38:01;27.48;;;16.80;;
41631;SDS011;37452;51.938;4.624;2023-09-12T11:42:59;24.52;;;16.30;;
41631;SDS011;37452;51.938;4.624;2023-09-12T11:45:25;23.30;;;14.15;;
41631;SDS011;37452;51.938;4.624;2023-09-12T11:47:50;25.23;;;15.73;;
41631;SDS011;37452;51.938;4.624;2023-09-12T11:51:16;24.48;;;16.08;;
41631;SDS011;37452;51.938;4.624;2023-09-12T11:53:19;26.05;;;15.52;;
41631;SDS011;37452;51.938;4.624;2023-09-12T11:55:47;29.90;;;16.65;;
41631;SDS011;37452;51.938;4.624;2023-09-12T11:58:14;32.17;;;17.90;;
41631;SDS011;37452;51.938;4.624;2023-09-12T12:00:44;30.25;;;17.55;;
41631;SDS011;37452;51.938;4.624;2023-09-12T12:03:11;29.33;;;18.35;;
41631;SDS011;37452;51.938;4.624;2023-09-12T12:05:37;23.45;;;17.77;;
41631;SDS011;37452;51.938;4.624;2023-09-12T12:08:02;25.80;;;17.40;;
41631;SDS011;37452;51.938;4.624;2023-09-12T12:10:28;22.25;;;16.73;;
41631;SDS011;37452;51.938;4.624;2023-09-12T12:12:54;23.85;;;16.90;;
41631;SDS011;37452;51.938;4.624;2023-09-12T12:15:19;22.77;;;16.40;;
41631;SDS011;37452;51.938;4.624;2023-09-12T12:17:45;23.83;;;16.10;;
41631;SDS011;37452;51.938;4.624;2023-09-12T12:20:10;27.23;;;17.20;;
41631;SDS011;37452;51.938;4.624;2023-09-12T12:22:39;24.77;;;16.40;;
41631;SDS011;37452;51.938;4.624;2023-09-12T12:25:09;23.00;;;15.05;;
41631;SDS011;37452;51.938;4.624;2023-09-12T12:27:38;25.98;;;16.35;;
41631;SDS011;37452;51.938;4.624;2023-09-12T12:30:08;21.52;;;14.85;;
41631;SDS011;37452;51.938;4.624;2023-09-12T12:32:42;24.27;;;16.25;;
41631;SDS011;37452;51.938;4.624;2023-09-12T12:35:09;17.40;;;12.93;;
41631;SDS011;37452;51.938;4.624;2023-09-12T12:37:35;21.00;;;12.43;;
41631;SDS011;37452;51.938;4.624;2023-09-12T12:40:02;18.05;;;11.23;;
41631;SDS011;37452;51.938;4.624;2023-09-12T12:42:34;18.83;;;12.32;;
41631;SDS011;37452;51.938;4.624;2023-09-12T12:45:10;19.85;;;12.75;;
41631;SDS011;37452;51.938;4.624;2023-09-12T12:47:39;17.35;;;13.02;;
41631;SDS011;37452;51.938;4.624;2023-09-12T12:50:09;21.80;;;16.15;;
41631;SDS011;37452;51.938;4.624;2023-09-12T12:52:45;21.20;;;15.40;;
41631;SDS011;37452;51.938;4.624;2023-09-12T12:55:12;21.35;;;15.25;;
41631;SDS011;37452;51.938;4.624;2023-09-12T12:57:39;22.75;;;16.27;;
41631;SDS011;37452;51.938;4.624;2023-09-12T13:00:09;22.58;;;15.52;;
41631;SDS011;37452;51.938;4.624;2023-09-12T13:02:37;22.73;;;15.82;;
41631;SDS011;37452;51.938;4.624;2023-09-12T13:05:03;24.67;;;15.30;;
41631;SDS011;37452;51.938;4.624;2023-09-12T13:07:32;22.60;;;15.55;;
41631;SDS011;37452;51.938;4.624;2023-09-12T13:09:58;26.30;;;17.25;;
41631;SDS011;37452;51.938;4.624;2023-09-12T13:12:23;24.58;;;17.23;;
41631;SDS011;37452;51.938;4.624;2023-09-12T13:14:49;28.08;;;17.88;;
41631;SDS011;37452;51.938;4.624;2023-09-12T13:17:14;27.08;;;17.58;;
41631;SDS011;37452;51.938;4.624;2023-09-12T13:19:40;26.98;;;16.58;;
41631;SDS011;37452;51.938;4.624;2023-09-12T13:22:05;26.27;;;16.75;;
41631;SDS011;37452;51.938;4.624;2023-09-12T13:24:30;27.75;;;18.42;;
41631;SDS011;37452;51.938;4.624;2023-09-12T13:26:56;29.17;;;18.40;;
41631;SDS011;37452;51.938;4.624;2023-09-12T13:29:21;27.77;;;18.23;;
41631;SDS011;37452;51.938;4.624;2023-09-12T13:31:46;22.92;;;17.33;;
41631;SDS011;37452;51.938;4.624;2023-09-12T13:34:12;22.27;;;16.25;;
41631;SDS011;37452;51.938;4.624;2023-09-12T13:36:37;23.05;;;15.27;;
41631;SDS011;37452;51.938;4.624;2023-09-12T13:39:02;20.20;;;15.48;;
41631;SDS011;37452;51.938;4.624;2023-09-12T13:41:29;23.90;;;16.08;;
41631;SDS011;37452;51.938;4.624;2023-09-12T13:44:01;23.83;;;15.55;;
41631;SDS011;37452;51.938;4.624;2023-09-12T13:46:26;23.95;;;16.15;;
41631;SDS011;37452;51.938;4.624;2023-09-12T13:48:51;26.10;;;18.02;;
41631;SDS011;37452;51.938;4.624;2023-09-12T13:51:17;28.65;;;17.30;;
41631;SDS011;37452;51.938;4.624;2023-09-12T13:53:42;26.27;;;16.83;;
41631;SDS011;37452;51.938;4.624;2023-09-12T13:56:08;25.27;;;16.63;;
41631;SDS011;37452;51.938;4.624;2023-09-12T13:58:34;21.08;;;12.85;;
41631;SDS011;37452;51.938;4.624;2023-09-12T14:00:59;20.67;;;14.07;;
41631;SDS011;37452;51.938;4.624;2023-09-12T14:03:24;19.48;;;13.70;;
41631;SDS011;37452;51.938;4.624;2023-09-12T14:05:50;19.50;;;10.88;;
41631;SDS011;37452;51.938;4.624;2023-09-12T14:08:15;9.68;;;6.93;;
41631;SDS011;37452;51.938;4.624;2023-09-12T14:10:41;11.57;;;8.38;;
41631;SDS011;37452;51.938;4.624;2023-09-12T14:13:06;7.90;;;6.40;;
41631;SDS011;37452;51.938;4.624;2023-09-12T14:15:32;9.63;;;7.20;;
41631;SDS011;37452;51.938;4.624;2023-09-12T14:17:57;13.80;;;9.95;;
41631;SDS011;37452;51.938;4.624;2023-09-12T14:20:23;14.73;;;9.95;;
41631;SDS011;37452;51.938;4.624;2023-09-12T14:22:48;15.02;;;10.73;;
41631;SDS011;37452;51.938;4.624;2023-09-12T14:25:13;16.73;;;10.95;;
41631;SDS011;37452;51.938;4.624;2023-09-12T14:27:42;15.57;;;10.68;;
41631;SDS011;37452;51.938;4.624;2023-09-12T14:30:09;13.77;;;9.07;;
41631;SDS011;37452;51.938;4.624;2023-09-12T14:32:35;11.10;;;5.18;;
41631;SDS011;37452;51.938;4.624;2023-09-12T14:35:00;6.07;;;4.43;;
41631;SDS011;37452;51.938;4.624;2023-09-12T14:37:25;5.18;;;3.33;;
41631;SDS011;37452;51.938;4.624;2023-09-12T14:39:52;5.82;;;3.20;;
41631;SDS011;37452;51.938;4.624;2023-09-12T14:42:19;5.75;;;3.13;;
41631;SDS011;37452;51.938;4.624;2023-09-12T14:44:44;6.25;;;3.67;;
41631;SDS011;37452;51.938;4.624;2023-09-12T14:47:09;6.82;;;3.45;;
41631;SDS011;37452;51.938;4.624;2023-09-12T14:49:35;7.78;;;3.25;;